sensor_id;sensor_type;location;lat;lon;timestamp;pressure;altitude;pressure_sealevel;temperature;humidity
19286;BME280;9776;50.798;6.430;2022-11-15T00:00:12;99560.00;;;10.90;77.60
19286;BME280;9776;50.798;6.430;2022-11-15T00:02:39;99555.03;;;10.87;77.88
19286;BME280;9776;50.798;6.430;2022-11-15T00:05:06;99553.22;;;10.87;77.86
19286;BME280;9776;50.798;6.430;2022-11-15T00:07:33;99561.16;;;10.87;77.96
19286;BME280;9776;50.798;6.430;2022-11-15T00:10:01;99559.34;;;10.88;78.22
19286;BME280;9776;50.798;6.430;2022-11-15T00:12:27;99558.34;;;10.89;78.33
19286;BME280;9776;50.798;6.430;2022-11-15T00:14:54;99554.72;;;10.90;78.15
19286;BME280;9776;50.798;6.430;2022-11-15T00:17:21;99558.00;;;10.92;78.52
19286;BME280;9776;50.798;6.430;2022-11-15T00:19:47;99554.19;;;10.94;78.59
19286;BME280;9776;50.798;6.430;2022-11-15T00:22:14;99551.19;;;10.97;78.54
19286;BME280;9776;50.798;6.430;2022-11-15T00:24:41;99552.88;;;10.98;78.63
19286;BME280;9776;50.798;6.430;2022-11-15T00:27:09;99541.31;;;10.99;78.59
19286;BME280;9776;50.798;6.430;2022-11-15T00:29:35;99548.56;;;10.97;78.79
19286;BME280;9776;50.798;6.430;2022-11-15T00:32:03;99548.41;;;10.99;78.86
19286;BME280;9776;50.798;6.430;2022-11-15T00:34:30;99545.59;;;11.00;78.93
19286;BME280;9776;50.798;6.430;2022-11-15T00:36:57;99546.59;;;10.99;78.99
19286;BME280;9776;50.798;6.430;2022-11-15T00:39:23;99545.44;;;11.02;79.20
19286;BME280;9776;50.798;6.430;2022-11-15T00:41:50;99548.56;;;11.05;79.07
19286;BME280;9776;50.798;6.430;2022-11-15T00:44:18;99546.91;;;11.04;79.10
19286;BME280;9776;50.798;6.430;2022-11-15T00:46:45;99544.06;;;11.06;79.31
19286;BME280;9776;50.798;6.430;2022-11-15T00:49:11;99542.91;;;11.08;79.39
19286;BME280;9776;50.798;6.430;2022-11-15T00:51:38;99538.09;;;11.12;79.32
19286;BME280;9776;50.798;6.430;2022-11-15T00:54:05;99544.88;;;11.14;79.42
19286;BME280;9776;50.798;6.430;2022-11-15T00:56:31;99543.03;;;11.15;79.40
19286;BME280;9776;50.798;6.430;2022-11-15T00:58:58;99546.53;;;11.15;79.50
19286;BME280;9776;50.798;6.430;2022-11-15T01:01:26;99550.63;;;11.18;79.56
19286;BME280;9776;50.798;6.430;2022-11-15T01:03:53;99554.59;;;11.22;79.52
19286;BME280;9776;50.798;6.430;2022-11-15T01:06:19;99548.13;;;11.24;79.37
19286;BME280;9776;50.798;6.430;2022-11-15T01:08:46;99555.19;;;11.32;79.44
19286;BME280;9776;50.798;6.430;2022-11-15T01:11:12;99550.56;;;11.34;79.52
19286;BME280;9776;50.798;6.430;2022-11-15T01:13:40;99544.75;;;11.38;79.50
19286;BME280;9776;50.798;6.430;2022-11-15T01:16:09;99547.88;;;11.42;79.46
19286;BME280;9776;50.798;6.430;2022-11-15T01:18:37;99542.88;;;11.47;79.47
19286;BME280;9776;50.798;6.430;2022-11-15T01:21:06;99536.44;;;11.50;79.36
19286;BME280;9776;50.798;6.430;2022-11-15T01:23:33;99537.06;;;11.52;79.26
19286;BME280;9776;50.798;6.430;2022-11-15T01:26:00;99537.75;;;11.54;79.37
19286;BME280;9776;50.798;6.430;2022-11-15T01:28:30;99528.78;;;11.55;79.43
19286;BME280;9776;50.798;6.430;2022-11-15T01:30:58;99526.81;;;11.57;79.52
19286;BME280;9776;50.798;6.430;2022-11-15T01:33:24;99528.44;;;11.58;79.34
19286;BME280;9776;50.798;6.430;2022-11-15T01:35:52;99519.19;;;11.62;79.33
19286;BME280;9776;50.798;6.430;2022-11-15T01:38:19;99523.13;;;11.66;79.21
19286;BME280;9776;50.798;6.430;2022-11-15T01:40:46;99518.16;;;11.71;79.21
19286;BME280;9776;50.798;6.430;2022-11-15T01:43:20;99524.84;;;11.81;78.83
19286;BME280;9776;50.798;6.430;2022-11-15T01:45:50;99520.88;;;11.85;78.48
19286;BME280;9776;50.798;6.430;2022-11-15T01:48:20;99512.94;;;11.85;78.57
19286;BME280;9776;50.798;6.430;2022-11-15T01:50:47;99504.59;;;11.74;78.86
19286;BME280;9776;50.798;6.430;2022-11-15T01:53:16;99495.56;;;11.60;79.38
19286;BME280;9776;50.798;6.430;2022-11-15T01:55:43;99492.50;;;11.49;79.33
19286;BME280;9776;50.798;6.430;2022-11-15T01:58:10;99491.91;;;11.38;79.83
19286;BME280;9776;50.798;6.430;2022-11-15T02:00:37;99497.06;;;11.32;80.14
19286;BME280;9776;50.798;6.430;2022-11-15T02:03:04;99488.03;;;11.26;80.30
19286;BME280;9776;50.798;6.430;2022-11-15T02:05:31;99490.03;;;11.24;80.37
19286;BME280;9776;50.798;6.430;2022-11-15T02:07:59;99485.72;;;11.23;80.27
19286;BME280;9776;50.798;6.430;2022-11-15T02:10:28;99483.75;;;11.25;80.47
19286;BME280;9776;50.798;6.430;2022-11-15T02:12:56;99479.47;;;11.24;80.35
19286;BME280;9776;50.798;6.430;2022-11-15T02:15:24;99477.16;;;11.21;80.18
19286;BME280;9776;50.798;6.430;2022-11-15T02:18:14;99479.84;;;11.13;80.44
19286;BME280;9776;50.798;6.430;2022-11-15T02:20:56;99486.13;;;11.12;80.21
19286;BME280;9776;50.798;6.430;2022-11-15T02:26:53;99486.25;;;11.19;79.98
19286;BME280;9776;50.798;6.430;2022-11-15T02:29:31;99475.69;;;11.19;80.20
19286;BME280;9776;50.798;6.430;2022-11-15T02:32:05;99478.03;;;11.14;80.44
19286;BME280;9776;50.798;6.430;2022-11-15T02:34:42;99468.81;;;11.10;80.25
19286;BME280;9776;50.798;6.430;2022-11-15T02:37:16;99472.63;;;11.07;80.62
19286;BME280;9776;50.798;6.430;2022-11-15T02:39:49;99466.69;;;11.05;80.82
19286;BME280;9776;50.798;6.430;2022-11-15T02:42:21;99470.97;;;11.06;80.94
19286;BME280;9776;50.798;6.430;2022-11-15T02:45:11;99461.56;;;11.04;81.06
19286;BME280;9776;50.798;6.430;2022-11-15T02:47:43;99458.41;;;11.08;80.89
19286;BME280;9776;50.798;6.430;2022-11-15T02:50:13;99452.44;;;11.14;80.75
19286;BME280;9776;50.798;6.430;2022-11-15T02:52:45;99451.25;;;11.17;80.69
19286;BME280;9776;50.798;6.430;2022-11-15T02:55:29;99458.38;;;11.16;80.44
19286;BME280;9776;50.798;6.430;2022-11-15T02:58:15;99463.31;;;11.19;80.58
19286;BME280;9776;50.798;6.430;2022-11-15T03:00:48;99455.69;;;11.24;80.54
19286;BME280;9776;50.798;6.430;2022-11-15T03:03:29;99465.41;;;11.24;80.70
19286;BME280;9776;50.798;6.430;2022-11-15T03:06:05;99461.59;;;11.26;80.50
19286;BME280;9776;50.798;6.430;2022-11-15T03:08:42;99466.06;;;11.26;80.63
19286;BME280;9776;50.798;6.430;2022-11-15T03:11:13;99464.88;;;11.28;80.44
19286;BME280;9776;50.798;6.430;2022-11-15T03:13:46;99458.63;;;11.29;80.69
19286;BME280;9776;50.798;6.430;2022-11-15T03:16:20;99461.09;;;11.31;80.36
19286;BME280;9776;50.798;6.430;2022-11-15T03:18:54;99462.56;;;11.33;80.43
19286;BME280;9776;50.798;6.430;2022-11-15T03:21:22;99454.63;;;11.33;80.57
19286;BME280;9776;50.798;6.430;2022-11-15T03:23:51;99455.28;;;11.35;80.49
19286;BME280;9776;50.798;6.430;2022-11-15T03:26:21;99455.09;;;11.37;80.29
19286;BME280;9776;50.798;6.430;2022-11-15T03:28:52;99449.63;;;11.38;80.37
19286;BME280;9776;50.798;6.430;2022-11-15T03:31:21;99456.38;;;11.41;80.52
19286;BME280;9776;50.798;6.430;2022-11-15T03:34:11;99455.41;;;11.42;80.38
19286;BME280;9776;50.798;6.430;2022-11-15T03:36:39;99448.31;;;11.43;80.33
19286;BME280;9776;50.798;6.430;2022-11-15T03:39:07;99452.22;;;11.47;80.42
19286;BME280;9776;50.798;6.430;2022-11-15T03:41:39;99441.13;;;11.51;80.33
19286;BME280;9776;50.798;6.430;2022-11-15T03:44:13;99441.94;;;11.52;80.57
19286;BME280;9776;50.798;6.430;2022-11-15T03:46:46;99439.28;;;11.52;80.33
19286;BME280;9776;50.798;6.430;2022-11-15T03:49:19;99437.81;;;11.49;80.72
19286;BME280;9776;50.798;6.430;2022-11-15T03:51:47;99441.28;;;11.50;80.57
19286;BME280;9776;50.798;6.430;2022-11-15T03:54:13;99440.47;;;11.49;80.54
19286;BME280;9776;50.798;6.430;2022-11-15T03:56:40;99436.72;;;11.44;80.68
19286;BME280;9776;50.798;6.430;2022-11-15T03:59:07;99437.06;;;11.40;81.00
19286;BME280;9776;50.798;6.430;2022-11-15T04:01:33;99428.22;;;11.33;80.90
19286;BME280;9776;50.798;6.430;2022-11-15T04:04:00;99427.91;;;11.28;81.04
19286;BME280;9776;50.798;6.430;2022-11-15T04:06:28;99426.28;;;11.27;81.38
19286;BME280;9776;50.798;6.430;2022-11-15T04:08:55;99440.47;;;11.26;81.23
19286;BME280;9776;50.798;6.430;2022-11-15T04:11:21;99427.91;;;11.28;81.06
19286;BME280;9776;50.798;6.430;2022-11-15T04:13:48;99434.50;;;11.32;81.08
19286;BME280;9776;50.798;6.430;2022-11-15T04:16:15;99437.47;;;11.29;81.10
19286;BME280;9776;50.798;6.430;2022-11-15T04:18:41;99442.59;;;11.31;80.96
19286;BME280;9776;50.798;6.430;2022-11-15T04:21:08;99439.97;;;11.31;81.08
19286;BME280;9776;50.798;6.430;2022-11-15T04:23:54;99440.13;;;11.29;81.29
19286;BME280;9776;50.798;6.430;2022-11-15T04:26:40;99435.66;;;11.30;81.10
19286;BME280;9776;50.798;6.430;2022-11-15T04:29:07;99439.97;;;11.31;81.12
19286;BME280;9776;50.798;6.430;2022-11-15T04:31:51;99439.78;;;11.32;81.03
19286;BME280;9776;50.798;6.430;2022-11-15T04:34:18;99439.78;;;11.32;81.03
19286;BME280;9776;50.798;6.430;2022-11-15T04:36:45;99439.41;;;11.35;81.23
19286;BME280;9776;50.798;6.430;2022-11-15T04:39:30;99442.06;;;11.35;81.06
19286;BME280;9776;50.798;6.430;2022-11-15T04:41:57;99446.72;;;11.33;81.15
19286;BME280;9776;50.798;6.430;2022-11-15T04:44:23;99444.72;;;11.35;81.17
19286;BME280;9776;50.798;6.430;2022-11-15T04:46:50;99441.44;;;11.33;81.21
19286;BME280;9776;50.798;6.430;2022-11-15T04:49:17;99447.41;;;11.27;81.26
19286;BME280;9776;50.798;6.430;2022-11-15T04:51:44;99449.09;;;11.20;81.54
19286;BME280;9776;50.798;6.430;2022-11-15T04:54:11;99450.47;;;11.16;81.48
19286;BME280;9776;50.798;6.430;2022-11-15T04:56:39;99449.00;;;11.14;81.72
19286;BME280;9776;50.798;6.430;2022-11-15T04:59:05;99447.84;;;11.08;81.66
19286;BME280;9776;50.798;6.430;2022-11-15T05:01:32;99445.91;;;11.02;81.81
19286;BME280;9776;50.798;6.430;2022-11-15T05:03:59;99440.66;;;10.94;81.95
19286;BME280;9776;50.798;6.430;2022-11-15T05:06:49;99441.69;;;10.85;82.14
19286;BME280;9776;50.798;6.430;2022-11-15T05:09:17;99441.19;;;10.90;82.02
19286;BME280;9776;50.798;6.430;2022-11-15T05:11:45;99440.19;;;10.91;81.91
19286;BME280;9776;50.798;6.430;2022-11-15T05:14:13;99447.66;;;10.87;82.02
19286;BME280;9776;50.798;6.430;2022-11-15T05:16:40;99436.31;;;10.78;82.11
19286;BME280;9776;50.798;6.430;2022-11-15T05:19:07;99431.88;;;10.71;82.18
19286;BME280;9776;50.798;6.430;2022-11-15T05:21:34;99439.66;;;10.64;82.15
19286;BME280;9776;50.798;6.430;2022-11-15T05:24:01;99436.53;;;10.61;82.44
19286;BME280;9776;50.798;6.430;2022-11-15T05:26:28;99428.13;;;10.57;82.33
19286;BME280;9776;50.798;6.430;2022-11-15T05:28:57;99438.19;;;10.54;82.57
19286;BME280;9776;50.798;6.430;2022-11-15T05:31:25;99439.38;;;10.51;82.33
19286;BME280;9776;50.798;6.430;2022-11-15T05:33:52;99440.53;;;10.49;82.28
19286;BME280;9776;50.798;6.430;2022-11-15T05:36:25;99437.59;;;10.44;82.26
19286;BME280;9776;50.798;6.430;2022-11-15T05:38:53;99440.38;;;10.42;82.46
19286;BME280;9776;50.798;6.430;2022-11-15T05:41:32;99431.50;;;10.43;82.35
19286;BME280;9776;50.798;6.430;2022-11-15T05:44:03;99433.00;;;10.38;82.28
19286;BME280;9776;50.798;6.430;2022-11-15T05:46:32;99435.09;;;10.42;82.29
19286;BME280;9776;50.798;6.430;2022-11-15T05:49:00;99429.97;;;10.49;81.69
19286;BME280;9776;50.798;6.430;2022-11-15T05:51:27;99422.72;;;10.51;81.81
19286;BME280;9776;50.798;6.430;2022-11-15T05:53:56;99422.88;;;10.57;81.34
19286;BME280;9776;50.798;6.430;2022-11-15T05:56:23;99424.13;;;10.69;81.17
19286;BME280;9776;50.798;6.430;2022-11-15T05:58:51;99432.19;;;10.76;80.72
19286;BME280;9776;50.798;6.430;2022-11-15T06:01:19;99436.78;;;10.82;80.44
19286;BME280;9776;50.798;6.430;2022-11-15T06:03:46;99435.72;;;10.91;79.93
19286;BME280;9776;50.798;6.430;2022-11-15T06:06:13;99443.63;;;10.99;79.52
19286;BME280;9776;50.798;6.430;2022-11-15T06:08:40;99443.44;;;11.01;79.43
19286;BME280;9776;50.798;6.430;2022-11-15T06:11:08;99440.66;;;10.94;79.73
19286;BME280;9776;50.798;6.430;2022-11-15T06:13:35;99449.28;;;10.88;79.60
19286;BME280;9776;50.798;6.430;2022-11-15T06:16:02;99461.19;;;10.84;79.58
19286;BME280;9776;50.798;6.430;2022-11-15T06:18:31;99450.97;;;10.81;79.41
19286;BME280;9776;50.798;6.430;2022-11-15T06:20:59;99459.38;;;10.76;79.51
19286;BME280;9776;50.798;6.430;2022-11-15T06:23:26;99458.09;;;10.72;79.43
19286;BME280;9776;50.798;6.430;2022-11-15T06:25:53;99460.09;;;10.70;79.24
19286;BME280;9776;50.798;6.430;2022-11-15T06:28:20;99462.56;;;10.72;79.30
19286;BME280;9776;50.798;6.430;2022-11-15T06:30:46;99463.53;;;10.71;79.19
19286;BME280;9776;50.798;6.430;2022-11-15T06:33:13;99469.81;;;10.70;78.77
19286;BME280;9776;50.798;6.430;2022-11-15T06:35:41;99462.88;;;10.69;78.82
19286;BME280;9776;50.798;6.430;2022-11-15T06:38:09;99465.03;;;10.65;78.66
19286;BME280;9776;50.798;6.430;2022-11-15T06:40:37;99463.56;;;10.63;78.62
19286;BME280;9776;50.798;6.430;2022-11-15T06:43:05;99473.63;;;10.59;78.55
19286;BME280;9776;50.798;6.430;2022-11-15T06:45:32;99477.28;;;10.58;78.57
19286;BME280;9776;50.798;6.430;2022-11-15T06:47:59;99479.44;;;10.55;78.43
19286;BME280;9776;50.798;6.430;2022-11-15T06:50:25;99475.47;;;10.51;78.19
19286;BME280;9776;50.798;6.430;2022-11-15T06:52:53;99479.97;;;10.50;78.22
19286;BME280;9776;50.798;6.430;2022-11-15T06:55:20;99480.63;;;10.44;78.25
19286;BME280;9776;50.798;6.430;2022-11-15T06:57:48;99481.78;;;10.42;78.21
19286;BME280;9776;50.798;6.430;2022-11-15T07:00:17;99482.47;;;10.36;78.01
19286;BME280;9776;50.798;6.430;2022-11-15T07:02:44;99496.13;;;10.31;78.05
19286;BME280;9776;50.798;6.430;2022-11-15T07:05:11;99495.50;;;10.29;77.95
19286;BME280;9776;50.798;6.430;2022-11-15T07:07:38;99497.63;;;10.25;77.81
19286;BME280;9776;50.798;6.430;2022-11-15T07:10:08;99495.66;;;10.27;77.75
19286;BME280;9776;50.798;6.430;2022-11-15T07:12:35;99503.41;;;10.29;77.80
19286;BME280;9776;50.798;6.430;2022-11-15T07:15:01;99510.50;;;10.29;77.44
19286;BME280;9776;50.798;6.430;2022-11-15T07:17:28;99510.34;;;10.30;77.50
19286;BME280;9776;50.798;6.430;2022-11-15T07:19:55;99518.06;;;10.32;77.17
19286;BME280;9776;50.798;6.430;2022-11-15T07:22:21;99523.00;;;10.35;77.06
19286;BME280;9776;50.798;6.430;2022-11-15T07:24:48;99528.94;;;10.37;77.12
19286;BME280;9776;50.798;6.430;2022-11-15T07:27:16;99524.34;;;10.39;76.69
19286;BME280;9776;50.798;6.430;2022-11-15T07:29:43;99531.09;;;10.41;76.62
19286;BME280;9776;50.798;6.430;2022-11-15T07:32:09;99529.28;;;10.42;76.78
19286;BME280;9776;50.798;6.430;2022-11-15T07:34:36;99526.47;;;10.43;76.37
19286;BME280;9776;50.798;6.430;2022-11-15T07:37:03;99528.91;;;10.45;76.31
19286;BME280;9776;50.798;6.430;2022-11-15T07:39:29;99528.91;;;10.45;76.25
19286;BME280;9776;50.798;6.430;2022-11-15T07:41:56;99528.75;;;10.46;76.18
19286;BME280;9776;50.798;6.430;2022-11-15T07:44:38;99527.78;;;10.47;76.17
19286;BME280;9776;50.798;6.430;2022-11-15T07:47:04;99524.81;;;10.50;75.83
19286;BME280;9776;50.798;6.430;2022-11-15T07:49:31;99520.50;;;10.49;75.79
19286;BME280;9776;50.798;6.430;2022-11-15T07:51:58;99527.91;;;10.54;75.77
19286;BME280;9776;50.798;6.430;2022-11-15T07:54:25;99527.91;;;10.54;75.58
19286;BME280;9776;50.798;6.430;2022-11-15T07:56:51;99534.50;;;10.58;75.49
19286;BME280;9776;50.798;6.430;2022-11-15T07:59:18;99533.34;;;10.60;75.20
19286;BME280;9776;50.798;6.430;2022-11-15T08:01:47;99525.91;;;10.64;75.31
19286;BME280;9776;50.798;6.430;2022-11-15T08:04:13;99527.06;;;10.69;74.97
19286;BME280;9776;50.798;6.430;2022-11-15T08:06:40;99524.91;;;10.73;74.83
19286;BME280;9776;50.798;6.430;2022-11-15T08:09:07;99530.84;;;10.75;74.64
19286;BME280;9776;50.798;6.430;2022-11-15T08:11:34;99519.41;;;10.82;74.29
19286;BME280;9776;50.798;6.430;2022-11-15T08:14:00;99518.72;;;10.89;74.39
19286;BME280;9776;50.798;6.430;2022-11-15T08:16:27;99504.38;;;10.91;74.11
19286;BME280;9776;50.798;6.430;2022-11-15T08:18:55;99508.63;;;11.00;73.54
19286;BME280;9776;50.798;6.430;2022-11-15T08:21:22;99509.41;;;11.09;73.21
19286;BME280;9776;50.798;6.430;2022-11-15T08:23:50;99509.00;;;11.20;72.73
19286;BME280;9776;50.798;6.430;2022-11-15T08:26:17;99497.94;;;11.24;72.55
19286;BME280;9776;50.798;6.430;2022-11-15T08:28:43;99499.41;;;11.27;72.31
19286;BME280;9776;50.798;6.430;2022-11-15T08:31:14;99493.44;;;11.33;71.79
19286;BME280;9776;50.798;6.430;2022-11-15T08:33:42;99497.19;;;11.38;71.46
19286;BME280;9776;50.798;6.430;2022-11-15T08:36:13;99495.88;;;11.43;71.10
19286;BME280;9776;50.798;6.430;2022-11-15T08:38:40;99488.22;;;11.48;71.18
19286;BME280;9776;50.798;6.430;2022-11-15T08:41:12;99480.78;;;11.51;70.76
19286;BME280;9776;50.798;6.430;2022-11-15T08:43:40;99490.81;;;11.56;70.68
19286;BME280;9776;50.798;6.430;2022-11-15T08:46:08;99494.41;;;11.63;70.10
19286;BME280;9776;50.798;6.430;2022-11-15T08:48:36;99492.03;;;11.68;69.95
19286;BME280;9776;50.798;6.430;2022-11-15T08:51:03;99493.19;;;11.73;69.60
19286;BME280;9776;50.798;6.430;2022-11-15T08:53:31;99494.31;;;11.79;69.22
19286;BME280;9776;50.798;6.430;2022-11-15T08:55:58;99496.41;;;11.83;69.24
19286;BME280;9776;50.798;6.430;2022-11-15T08:58:25;99493.41;;;11.86;69.07
19286;BME280;9776;50.798;6.430;2022-11-15T09:00:52;99490.25;;;11.91;68.78
19286;BME280;9776;50.798;6.430;2022-11-15T09:03:18;99483.78;;;11.93;68.30
19286;BME280;9776;50.798;6.430;2022-11-15T09:05:45;99476.13;;;11.99;67.82
19286;BME280;9776;50.798;6.430;2022-11-15T09:08:12;99477.06;;;12.06;67.54
19286;BME280;9776;50.798;6.430;2022-11-15T09:10:40;99477.59;;;12.16;67.33
19286;BME280;9776;50.798;6.430;2022-11-15T09:13:07;99466.31;;;12.22;66.81
19286;BME280;9776;50.798;6.430;2022-11-15T09:15:34;99464.59;;;12.29;66.44
19286;BME280;9776;50.798;6.430;2022-11-15T09:18:00;99467.31;;;12.35;65.83
19286;BME280;9776;50.798;6.430;2022-11-15T09:20:27;99467.16;;;12.37;65.53
19286;BME280;9776;50.798;6.430;2022-11-15T09:22:53;99450.44;;;12.36;65.43
19286;BME280;9776;50.798;6.430;2022-11-15T09:25:20;99457.38;;;12.37;65.13
19286;BME280;9776;50.798;6.430;2022-11-15T09:27:48;99458.66;;;12.41;64.66
19286;BME280;9776;50.798;6.430;2022-11-15T09:30:15;99442.16;;;12.39;63.96
19286;BME280;9776;50.798;6.430;2022-11-15T09:32:42;99433.22;;;12.40;63.63
19286;BME280;9776;50.798;6.430;2022-11-15T09:35:09;99434.47;;;12.44;63.34
19286;BME280;9776;50.798;6.430;2022-11-15T09:37:35;99417.59;;;12.45;62.86
19286;BME280;9776;50.798;6.430;2022-11-15T09:40:03;99421.34;;;12.51;62.18
19286;BME280;9776;50.798;6.430;2022-11-15T09:42:43;99420.41;;;12.59;61.62
19286;BME280;9776;50.798;6.430;2022-11-15T09:45:18;99423.16;;;12.65;61.37
19286;BME280;9776;50.798;6.430;2022-11-15T09:47:56;99422.41;;;12.71;61.01
19286;BME280;9776;50.798;6.430;2022-11-15T09:50:32;99415.53;;;12.77;60.37
19286;BME280;9776;50.798;6.430;2022-11-15T09:53:00;99408.88;;;12.81;60.05
19286;BME280;9776;50.798;6.430;2022-11-15T09:55:34;99401.81;;;12.88;59.53
19286;BME280;9776;50.798;6.430;2022-11-15T09:58:10;99403.09;;;12.92;58.90
19286;BME280;9776;50.798;6.430;2022-11-15T10:00:45;99400.72;;;12.97;58.56
19286;BME280;9776;50.798;6.430;2022-11-15T10:03:22;99400.97;;;13.02;58.28
19286;BME280;9776;50.798;6.430;2022-11-15T10:05:52;99397.59;;;13.08;57.89
19286;BME280;9776;50.798;6.430;2022-11-15T10:08:28;99396.84;;;13.14;56.95
19286;BME280;9776;50.798;6.430;2022-11-15T10:10:59;99392.81;;;13.18;56.50
19286;BME280;9776;50.798;6.430;2022-11-15T10:13:30;99394.13;;;13.29;56.06
19286;BME280;9776;50.798;6.430;2022-11-15T10:16:07;99404.06;;;13.41;55.36
19286;BME280;9776;50.798;6.430;2022-11-15T10:18:47;99396.78;;;13.50;54.76
19286;BME280;9776;50.798;6.430;2022-11-15T10:21:20;99379.97;;;13.64;54.42
19286;BME280;9776;50.798;6.430;2022-11-15T10:23:48;99385.19;;;13.79;53.49
19286;BME280;9776;50.798;6.430;2022-11-15T10:26:17;99389.19;;;13.96;53.23
19286;BME280;9776;50.798;6.430;2022-11-15T10:28:44;99389.03;;;14.04;52.56
19286;BME280;9776;50.798;6.430;2022-11-15T10:31:23;99370.03;;;14.00;52.25
19286;BME280;9776;50.798;6.430;2022-11-15T10:33:51;99371.28;;;14.04;52.30
19286;BME280;9776;50.798;6.430;2022-11-15T10:36:20;99371.53;;;14.09;51.95
19286;BME280;9776;50.798;6.430;2022-11-15T10:38:54;99371.25;;;14.32;50.98
19286;BME280;9776;50.798;6.430;2022-11-15T10:41:27;99362.50;;;14.92;50.38
19286;BME280;9776;50.798;6.430;2022-11-15T10:52:52;99333.06;;;18.24;43.83
19286;BME280;9776;50.798;6.430;2022-11-15T10:55:23;99329.84;;;18.70;42.70
19286;BME280;9776;50.798;6.430;2022-11-15T10:57:53;99325.13;;;19.13;42.00
19286;BME280;9776;50.798;6.430;2022-11-15T11:00:30;99327.63;;;19.38;41.05
19286;BME280;9776;50.798;6.430;2022-11-15T11:02:59;99326.50;;;19.57;40.67
19286;BME280;9776;50.798;6.430;2022-11-15T11:05:28;99325.94;;;19.55;40.56
19286;BME280;9776;50.798;6.430;2022-11-15T11:08:00;99309.88;;;19.02;41.03
19286;BME280;9776;50.798;6.430;2022-11-15T11:10:28;99310.13;;;18.53;41.57
19286;BME280;9776;50.798;6.430;2022-11-15T11:12:54;99315.41;;;18.05;42.26
19286;BME280;9776;50.798;6.430;2022-11-15T11:15:24;99318.06;;;17.37;43.10
19286;BME280;9776;50.798;6.430;2022-11-15T11:18:02;99312.44;;;16.96;43.73
19286;BME280;9776;50.798;6.430;2022-11-15T11:20:38;99311.88;;;16.87;43.92
19286;BME280;9776;50.798;6.430;2022-11-15T11:23:26;99318.16;;;16.99;43.61
19286;BME280;9776;50.798;6.430;2022-11-15T11:26:11;99318.66;;;16.83;43.78
19286;BME280;9776;50.798;6.430;2022-11-15T11:28:50;99305.94;;;16.48;44.06
19286;BME280;9776;50.798;6.430;2022-11-15T11:31:26;99305.88;;;16.03;45.02
19286;BME280;9776;50.798;6.430;2022-11-15T11:34:04;99294.69;;;15.68;45.59
19286;BME280;9776;50.798;6.430;2022-11-15T11:36:39;99290.81;;;15.51;46.34
19286;BME280;9776;50.798;6.430;2022-11-15T11:39:19;99280.78;;;15.27;46.50
19286;BME280;9776;50.798;6.430;2022-11-15T11:41:55;99260.31;;;15.27;47.20
19286;BME280;9776;50.798;6.430;2022-11-15T11:44:33;99249.69;;;15.47;46.92
19286;BME280;9776;50.798;6.430;2022-11-15T11:47:01;99254.97;;;15.73;46.54
19286;BME280;9776;50.798;6.430;2022-11-15T11:49:34;99252.47;;;15.92;46.71
19286;BME280;9776;50.798;6.430;2022-11-15T11:52:09;99266.91;;;16.22;46.27
19286;BME280;9776;50.798;6.430;2022-11-15T11:54:45;99259.84;;;16.40;45.96
19286;BME280;9776;50.798;6.430;2022-11-15T11:57:20;99254.66;;;16.59;45.95
19286;BME280;9776;50.798;6.430;2022-11-15T11:59:52;99252.47;;;16.80;45.72
19286;BME280;9776;50.798;6.430;2022-11-15T12:02:25;99248.34;;;16.84;45.80
19286;BME280;9776;50.798;6.430;2022-11-15T12:05:03;99237.88;;;16.83;45.65
19286;BME280;9776;50.798;6.430;2022-11-15T12:07:32;99233.69;;;16.69;46.45
19286;BME280;9776;50.798;6.430;2022-11-15T12:10:05;99232.97;;;16.55;46.89
19286;BME280;9776;50.798;6.430;2022-11-15T12:12:46;99226.03;;;16.48;47.16
19286;BME280;9776;50.798;6.430;2022-11-15T12:15:16;99221.97;;;16.38;47.28
19286;BME280;9776;50.798;6.430;2022-11-15T12:17:45;99218.50;;;16.31;47.72
19286;BME280;9776;50.798;6.430;2022-11-15T12:20:17;99220.13;;;16.39;47.65
19286;BME280;9776;50.798;6.430;2022-11-15T12:22:49;99215.19;;;16.74;47.17
19286;BME280;9776;50.798;6.430;2022-11-15T12:25:23;99201.03;;;17.05;46.83
19286;BME280;9776;50.798;6.430;2022-11-15T12:27:54;99194.19;;;17.76;45.56
19286;BME280;9776;50.798;6.430;2022-11-15T12:30:23;99179.75;;;18.13;45.10
19286;BME280;9776;50.798;6.430;2022-11-15T12:32:53;99186.69;;;17.85;45.55
19286;BME280;9776;50.798;6.430;2022-11-15T12:35:26;99180.09;;;17.26;46.67
19286;BME280;9776;50.798;6.430;2022-11-15T12:37:54;99176.44;;;16.78;47.61
19286;BME280;9776;50.798;6.430;2022-11-15T12:40:31;99180.94;;;16.46;48.71
19286;BME280;9776;50.798;6.430;2022-11-15T12:46:12;99173.47;;;15.92;50.00
19286;BME280;9776;50.798;6.430;2022-11-15T12:48:57;99165.34;;;15.74;50.47
19286;BME280;9776;50.798;6.430;2022-11-15T12:52:04;99165.00;;;15.51;51.00
19286;BME280;9776;50.798;6.430;2022-11-15T12:55:01;99164.19;;;15.50;51.42
19286;BME280;9776;50.798;6.430;2022-11-15T13:00:43;99149.69;;;15.40;51.75
19286;BME280;9776;50.798;6.430;2022-11-15T13:03:25;99144.56;;;15.51;51.68
19286;BME280;9776;50.798;6.430;2022-11-15T13:06:05;99148.03;;;15.58;51.44
19286;BME280;9776;50.798;6.430;2022-11-15T13:08:45;99146.53;;;15.75;51.47
19286;BME280;9776;50.798;6.430;2022-11-15T13:11:43;99148.09;;;15.89;51.55
19286;BME280;9776;50.798;6.430;2022-11-15T13:14:50;99134.97;;;15.95;51.27
19286;BME280;9776;50.798;6.430;2022-11-15T13:17:24;99129.22;;;15.98;51.62
19286;BME280;9776;50.798;6.430;2022-11-15T13:19:55;99116.09;;;16.03;51.55
19286;BME280;9776;50.798;6.430;2022-11-15T13:22:24;99113.25;;;15.98;51.80
19286;BME280;9776;50.798;6.430;2022-11-15T13:25:15;99104.69;;;15.89;51.86
19286;BME280;9776;50.798;6.430;2022-11-15T13:27:44;99100.22;;;15.83;52.18
19286;BME280;9776;50.798;6.430;2022-11-15T13:30:19;99097.75;;;15.81;52.54
19286;BME280;9776;50.798;6.430;2022-11-15T13:32:48;99085.94;;;15.77;52.50
19286;BME280;9776;50.798;6.430;2022-11-15T13:35:20;99086.34;;;15.74;52.65
19286;BME280;9776;50.798;6.430;2022-11-15T13:37:48;99080.47;;;15.66;52.87
19286;BME280;9776;50.798;6.430;2022-11-15T13:40:23;99081.09;;;15.61;53.28
19286;BME280;9776;50.798;6.430;2022-11-15T13:42:50;99076.63;;;15.55;53.24
19286;BME280;9776;50.798;6.430;2022-11-15T13:45:19;99072.16;;;15.49;53.36